This is the latest recevied weather packets stored in our database for station/object EA5AER-5. If no packets are shown the sender has not sent any weather packets the latest 10 day(s).
| Time | Temp. | Humidity | Pressure | Rain* | Wind** | Luminosity | Snow |
|---|---|---|---|---|---|---|---|
| 1777292907 | 18.33° C | 60% | 1016.5 hPa | 0 mm | - | 868 W/m² | - |
| 1777291684 | 18.33° C | 63% | 1016.8 hPa | 0 mm | - | 881 W/m² | - |
| 1777290512 | 18.33° C | 63% | 1016.8 hPa | 0 mm | - | 881 W/m² | - |
| 1777289274 | 18.33° C | 61% | 1016.9 hPa | 0 mm | - | 868 W/m² | - |
| 1777287992 | 18.33° C | 64% | 1017.1 hPa | 0 mm | - | 854 W/m² | - |
| 1777286724 | 18.33° C | 62% | 1017.1 hPa | 0 mm | - | 824 W/m² | - |
| 1777285565 | 18.33° C | 62% | 1017.1 hPa | 0 mm | - | 824 W/m² | - |
| 1777284304 | 17.78° C | 61% | 1017.1 hPa | 0 mm | - | 566 W/m² | - |
| 1777283204 | 17.78° C | 61% | 1017.1 hPa | 0 mm | - | 566 W/m² | - |
| 1777282046 | 17.78° C | 61% | 1017.1 hPa | 0 mm | - | 566 W/m² | - |
| 1777280867 | 17.78° C | 61% | 1017.1 hPa | 0 mm | - | 566 W/m² | - |
| 1777279761 | 17.78° C | 61% | 1017.1 hPa | 0 mm | - | 566 W/m² | - |
| 1777278588 | 15.56° C | 65% | 1016.7 hPa | 0 mm | - | 130 W/m² | - |
| 1777277462 | 15.56° C | 65% | 1016.7 hPa | 0 mm | - | 130 W/m² | - |
| 1777276248 | 15.56° C | 65% | 1016.7 hPa | 0 mm | - | 130 W/m² | - |
| 1777274984 | 15.56° C | 65% | 1016.7 hPa | 0 mm | - | 130 W/m² | - |
| 1777273672 | 15.56° C | 65% | 1016.7 hPa | 0 mm | - | 130 W/m² | - |
| 1777272528 | 15.56° C | 65% | 1016.7 hPa | 0 mm | - | 130 W/m² | - |
| 1777271199 | 15° C | 64% | 1016.7 hPa | 0 mm | - | 125 W/m² | - |
| 1777269968 | 14.44° C | 62% | 1016.6 hPa | 0 mm | - | 81 W/m² | - |
| 1777268828 | 14.44° C | 63% | 1016.5 hPa | 0 mm | - | 25 W/m² | - |
| 1777267524 | 14.44° C | 59% | 1016.4 hPa | 0 mm | - | 18 W/m² | - |
| 1777266385 | 13.89° C | 48% | 1016.2 hPa | 0 mm | - | 0 W/m² | - |
| 1777265283 | 13.89° C | 48% | 1016.2 hPa | 0 mm | - | 0 W/m² | - |
| 1777264094 | 15° C | 45% | 1016.3 hPa | 0 mm | - | 0 W/m² | - |
* Rain latest hour (hover to see other rain measurements)
** Current wind speed in m/s (hover to see current wind gust speed)